Time;durP1;ratioP1;P1;durP2;ratioP2;P2;SDS_P1;SDS_P2;PMS_P1;PMS_P2;Temp;Humidity;BMP_temperature;BMP_pressure;BME280_temperature;BME280_humidity;BME280_pressure;Samples;Min_cycle;Max_cycle;Signal;HPM_P1;HPM_P2
2022/04/16 00:00:17;;;;;;;;;;;;;;;17.72;63.20;100692.94;5096475;28;1591;-62
2022/04/16 00:02:45;;;;;;;;;;;;;;;17.72;63.64;100679.56;5096728;28;1445;-62
2022/04/16 00:05:12;;;;;;;;;;;;;;;17.70;63.43;100673.50;5096644;28;1714;-61
2022/04/16 00:07:39;;;;;;;;;;;;;;;17.69;62.93;100674.50;5096154;28;1603;-62
2022/04/16 00:10:06;;;;;;;;;;;;;;;17.68;63.04;100673.63;5096048;28;1385;-61
2022/04/16 00:12:33;;;;;;;;;;;;;;;17.67;63.60;100676.47;5096417;28;1576;-59
2022/04/16 00:15:00;;;;;;;;;;;;;;;17.67;63.23;100676.47;5096417;28;1588;-59
2022/04/16 00:17:28;;;;;;;;;;;;;;;17.68;63.19;100667.44;5096356;28;1893;-59
2022/04/16 00:19:54;;;;;;;;;;;;;;;17.67;63.53;100665.75;5096259;28;1726;-59
2022/04/16 00:22:23;;;;;;;;;;;;;;;17.67;63.40;100665.75;5095713;28;1393;-59
2022/04/16 00:24:50;;;;;;;;;;;;;;;17.70;63.16;100663.66;5095937;28;1611;-59
2022/04/16 00:27:17;;;;;;;;;;;;;;;17.70;63.46;100673.50;5096190;28;1580;-60
2022/04/16 00:29:43;;;;;;;;;;;;;;;17.68;62.99;100665.59;5095826;28;1619;-60
2022/04/16 00:32:10;;;;;;;;;;;;;;;17.68;63.37;100648.72;5095509;28;989;-59
2022/04/16 00:34:38;;;;;;;;;;;;;;;17.67;63.18;100665.75;5096052;28;1694;-59
2022/04/16 00:37:05;;;;;;;;;;;;;;;17.68;63.72;100667.44;5095712;28;1976;-59
2022/04/16 00:39:32;;;;;;;;;;;;;;;17.66;63.19;100653.34;5095860;28;1388;-59
2022/04/16 00:41:58;;;;;;;;;;;;;;;17.68;63.14;100657.59;5096279;28;986;-60
2022/04/16 00:44:25;;;;;;;;;;;;;;;17.67;63.10;100658.56;5095423;28;1398;-59
2022/04/16 00:46:51;;;;;;;;;;;;;;;17.66;63.33;100664.03;5095622;28;1355;-60
2022/04/16 00:49:18;;;;;;;;;;;;;;;17.67;63.42;100660.41;5095659;28;1785;-60
2022/04/16 00:51:47;;;;;;;;;;;;;;;17.66;63.47;100654.19;5095640;28;1654;-60
2022/04/16 00:54:13;;;;;;;;;;;;;;;17.66;63.36;100648.00;5095734;28;1607;-60
2022/04/16 00:56:40;;;;;;;;;;;;;;;17.66;63.22;100645.31;5095503;28;1905;-60
2022/04/16 00:59:06;;;;;;;;;;;;;;;17.66;63.44;100648.00;5095677;28;1066;-60
2022/04/16 01:01:33;;;;;;;;;;;;;;;17.63;63.37;100640.25;5095208;28;1707;-60
2022/04/16 01:04:00;;;;;;;;;;;;;;;17.67;63.50;100647.03;5096006;28;1402;-59
2022/04/16 01:06:35;;;;;;;;;;;;;;;17.61;63.59;100624.34;5095492;28;1630;-59
2022/04/16 01:09:03;;;;;;;;;;;;;;;17.66;63.03;100637.31;5094942;28;1436;-61
2022/04/16 01:11:32;;;;;;;;;;;;;;;17.64;63.31;100641.94;5095344;28;1580;-59
2022/04/16 01:13:58;;;;;;;;;;;;;;;17.65;62.66;100652.50;5095642;28;1077;-60
2022/04/16 01:16:25;;;;;;;;;;;;;;;17.64;63.05;100636.59;5095269;28;1902;-60
2022/04/16 01:18:52;;;;;;;;;;;;;;;17.63;63.13;100637.59;5095088;28;1347;-60
2022/04/16 01:21:18;;;;;;;;;;;;;;;17.64;62.70;100644.59;5095222;28;1723;-61
2022/04/16 01:23:46;;;;;;;;;;;;;;;17.66;63.44;100648.00;5095364;28;1059;-60
2022/04/16 01:26:13;;;;;;;;;;;;;;;17.61;63.11;100639.53;5095113;28;1666;-60
2022/04/16 01:28:40;;;;;;;;;;;;;;;17.63;63.14;100642.94;5094821;28;1539;-60
2022/04/16 01:31:07;;;;;;;;;;;;;;;17.61;63.13;100640.38;5095076;28;2017;-60
2022/04/16 01:33:34;;;;;;;;;;;;;;;17.62;63.36;100651.91;5095206;28;1509;-60
2022/04/16 01:36:00;;;;;;;;;;;;;;;17.62;63.55;100646.56;5095053;28;1973;-61
2022/04/16 01:38:27;;;;;;;;;;;;;;;17.61;63.36;100644.88;5094508;28;1875;-60
2022/04/16 01:40:55;;;;;;;;;;;;;;;17.64;63.35;100657.97;5094871;28;1758;-59
2022/04/16 01:43:22;;;;;;;;;;;;;;;17.59;63.04;100646.84;5094533;28;1635;-61
2022/04/16 01:45:49;;;;;;;;;;;;;;;17.60;63.38;100645.84;5095382;28;1073;-59
2022/04/16 01:48:16;;;;;;;;;;;;;;;17.60;63.43;100646.69;5094542;28;1515;-60
2022/04/16 01:50:43;;;;;;;;;;;;;;;17.60;63.15;100653.88;5094737;28;1723;-61
2022/04/16 01:53:09;;;;;;;;;;;;;;;17.60;63.48;100656.53;5094352;28;1643;-60
2022/04/16 01:55:36;;;;;;;;;;;;;;;17.61;63.10;100656.41;5094290;28;1744;-60
2022/04/16 01:58:06;;;;;;;;;;;;;;;17.59;63.06;100661.06;5094548;28;1906;-60
2022/04/16 02:00:33;;;;;;;;;;;;;;;17.60;63.13;100656.53;5092793;28;1667;-59
2022/04/16 02:03:00;;;;;;;;;;;;;;;17.56;63.69;100658.63;5094214;28;1051;-60
2022/04/16 02:05:26;;;;;;;;;;;;;;;17.59;62.90;100660.22;5093973;28;1781;-60
2022/04/16 02:07:54;;;;;;;;;;;;;;;17.59;63.23;100669.06;5094204;28;1527;-60
2022/04/16 02:10:21;;;;;;;;;;;;;;;17.60;62.83;100659.22;5093336;28;1240;-60
2022/04/16 02:12:47;;;;;;;;;;;;;;;17.59;63.21;100676.25;5094107;28;1642;-61
2022/04/16 02:15:15;;;;;;;;;;;;;;;17.56;63.19;100669.31;5093666;28;1412;-60
2022/04/16 02:17:42;;;;;;;;;;;;;;;17.57;62.90;100664.84;5094504;28;1910;-60
2022/04/16 02:20:10;;;;;;;;;;;;;;;17.55;63.22;100661.41;5092902;28;1722;-60
2022/04/16 02:22:40;;;;;;;;;;;;;;;17.55;62.93;100670.31;5094322;28;1651;-60
2022/04/16 02:25:08;;;;;;;;;;;;;;;17.54;63.01;100660.56;5093895;28;1385;-60
2022/04/16 02:27:35;;;;;;;;;;;;;;;17.53;63.13;100658.03;5094340;28;1543;-59
2022/04/16 02:30:01;;;;;;;;;;;;;;;17.55;62.84;100666.75;5094303;28;1654;-60
2022/04/16 02:32:30;;;;;;;;;;;;;;;17.56;62.79;100661.28;5094802;28;1068;-60
2022/04/16 02:34:57;;;;;;;;;;;;;;;17.55;62.76;100659.63;5094264;28;1734;-60
2022/04/16 02:37:23;;;;;;;;;;;;;;;17.53;63.00;100647.31;5094165;28;1973;-60
2022/04/16 02:39:50;;;;;;;;;;;;;;;17.52;63.23;100651.84;5094263;28;1615;-59
2022/04/16 02:42:18;;;;;;;;;;;;;;;17.53;63.18;100650.00;5093801;28;1584;-60
2022/04/16 02:47:30;;;;;;;;;;;;;;;17.54;62.92;100651.72;5093184;28;643;-60
2022/04/16 02:49:57;;;;;;;;;;;;;;;17.54;63.24;100657.91;5093660;28;1594;-61
2022/04/16 02:52:25;;;;;;;;;;;;;;;17.52;62.90;100651.00;5094003;28;1568;-60
2022/04/16 02:54:52;;;;;;;;;;;;;;;17.54;62.95;100662.41;5094791;28;1599;-60
2022/04/16 02:57:19;;;;;;;;;;;;;;;17.52;62.61;100651.00;5088717;28;1969;-60
2022/04/16 02:59:46;;;;;;;;;;;;;;;17.56;63.57;100663.13;5097636;28;1508;-59
2022/04/16 03:02:13;;;;;;;;;;;;;;;17.56;62.96;100657.78;5098052;28;1971;-60
2022/04/16 03:04:41;;;;;;;;;;;;;;;17.55;62.91;100658.75;5097886;28;1765;-59
2022/04/16 03:07:07;;;;;;;;;;;;;;;17.53;62.95;100656.22;5097455;28;1587;-59
2022/04/16 03:09:34;;;;;;;;;;;;;;;17.54;63.01;100647.22;5097716;28;1564;-60
2022/04/16 03:12:00;;;;;;;;;;;;;;;17.52;63.36;100654.50;5097798;28;1595;-60
2022/04/16 03:19:57;;;;;;;;;;;;;;;17.49;63.06;100663.66;5097421;28;1415;-60
2022/04/16 03:22:24;;;;;;;;;;;;;;;17.49;62.96;100663.66;5097204;28;1584;-59
2022/04/16 03:24:51;;;;;;;;;;;;;;;17.47;62.85;100662.94;5097322;28;1377;-60
2022/04/16 03:27:18;;;;;;;;;;;;;;;17.48;62.78;100658.41;5097500;28;1638;-59
2022/04/16 03:29:44;;;;;;;;;;;;;;;17.49;63.04;100663.66;5097279;28;1567;-60
2022/04/16 03:32:11;;;;;;;;;;;;;;;17.48;62.96;100656.59;5097830;28;1064;-60
2022/04/16 03:34:37;;;;;;;;;;;;;;;17.46;62.91;100653.19;5097408;28;1829;-60
2022/04/16 03:37:06;;;;;;;;;;;;;;;17.47;62.79;100654.91;5096954;28;1902;-60
2022/04/16 03:39:32;;;;;;;;;;;;;;;17.50;62.84;100668.00;5097004;28;1424;-60
2022/04/16 03:41:59;;;;;;;;;;;;;;;17.47;63.08;100665.59;5097477;28;1027;-60
2022/04/16 03:44:25;;;;;;;;;;;;;;;17.46;62.84;100690.63;5097077;28;1817;-60
2022/04/16 03:46:52;;;;;;;;;;;;;;;17.50;62.94;100680.53;5096788;28;1706;-60
2022/04/16 03:49:18;;;;;;;;;;;;;;;17.49;62.78;100678.84;5097049;28;1741;-59
2022/04/16 03:51:45;;;;;;;;;;;;;;;17.48;62.84;100686.00;5096750;28;1212;-60
2022/04/16 04:00:03;;;;;;;;;;;;;;;17.45;62.87;100678.25;5094351;28;1591;-60
2022/04/16 04:02:30;;;;;;;;;;;;;;;17.48;62.91;100683.31;5096784;28;1333;-59
2022/04/16 04:04:57;;;;;;;;;;;;;;;17.47;62.97;100684.31;5096464;28;1612;-60
2022/04/16 04:07:23;;;;;;;;;;;;;;;17.48;62.77;100682.47;5096366;28;1869;-60
2022/04/16 04:09:51;;;;;;;;;;;;;;;17.49;62.82;100669.00;5096319;28;1580;-60
2022/04/16 04:12:17;;;;;;;;;;;;;;;17.56;62.71;100684.53;5096573;28;1516;-60
2022/04/16 04:14:45;;;;;;;;;;;;;;;17.68;62.17;100678.97;5096445;28;1464;-61
2022/04/16 04:17:12;;;;;;;;;;;;;;;18.22;60.30;100655.72;5096842;28;1973;-60
2022/04/16 04:19:40;;;;;;;;;;;;;;;18.84;58.97;100658.38;5096467;28;1769;-59
2022/04/16 04:22:07;;;;;;;;;;;;;;;19.05;58.72;100659.13;5096474;28;1560;-60
2022/04/16 04:24:34;;;;;;;;;;;;;;;18.85;58.68;100692.22;5096198;28;1251;-60
2022/04/16 04:27:02;;;;;;;;;;;;;;;18.17;60.96;100695.41;5095813;28;1384;-61
2022/04/16 04:29:29;;;;;;;;;;;;;;;17.83;61.88;100708.13;5091687;28;1532;-61
2022/04/16 04:31:55;;;;;;;;;;;;;;;17.64;62.21;100703.44;5096644;28;990;-61
2022/04/16 04:34:22;;;;;;;;;;;;;;;17.58;62.97;100703.97;5096310;28;1989;-61
2022/04/16 04:36:49;;;;;;;;;;;;;;;17.53;62.74;100701.66;5095773;28;1985;-61
2022/04/16 04:39:15;;;;;;;;;;;;;;;17.55;62.54;100698.84;5096535;28;1069;-60
2022/04/16 04:41:43;;;;;;;;;;;;;;;17.93;61.43;100694.84;5095928;28;1702;-61
2022/04/16 04:44:11;;;;;;;;;;;;;;;18.15;60.70;100697.38;5095716;28;1422;-60
2022/04/16 04:46:38;;;;;;;;;;;;;;;17.94;61.96;100707.22;5091385;28;1473;-61
2022/04/16 04:49:07;;;;;;;;;;;;;;;17.77;61.88;100708.63;5095688;28;1412;-59
2022/04/16 04:51:34;;;;;;;;;;;;;;;17.74;62.43;100719.56;5095560;28;1208;-59
2022/04/16 04:54:00;;;;;;;;;;;;;;;17.67;62.16;100720.09;5095432;28;1571;-60
2022/04/16 04:56:27;;;;;;;;;;;;;;;17.65;62.24;100711.34;5096216;28;970;-59
2022/04/16 04:58:53;;;;;;;;;;;;;;;17.65;62.46;100729.22;5095630;28;1910;-59
2022/04/16 05:01:21;;;;;;;;;;;;;;;17.66;62.25;100715.69;5094917;28;1504;-60
2022/04/16 05:03:47;;;;;;;;;;;;;;;17.64;62.56;100714.13;5095815;28;1864;-60
2022/04/16 05:06:14;;;;;;;;;;;;;;;17.69;62.40;100733.34;5095527;28;1515;-60
2022/04/16 05:08:41;;;;;;;;;;;;;;;17.68;61.99;100732.47;5095567;28;1047;-60
2022/04/16 05:11:07;;;;;;;;;;;;;;;17.69;62.02;100722.63;5095201;28;1551;-60
2022/04/16 05:13:34;;;;;;;;;;;;;;;17.68;62.27;100724.44;5095250;28;1359;-60
2022/04/16 05:16:00;;;;;;;;;;;;;;;17.68;62.22;100720.94;5095365;28;1678;-60
2022/04/16 05:18:28;;;;;;;;;;;;;;;17.70;62.23;100702.94;5095102;28;1906;-60
2022/04/16 05:20:55;;;;;;;;;;;;;;;17.72;62.43;100709.00;5095286;28;2197;-59
2022/04/16 05:23:22;;;;;;;;;;;;;;;17.74;62.44;100724.91;5094677;28;1503;-59
2022/04/16 05:25:49;;;;;;;;;;;;;;;17.75;63.02;100729.31;5095175;28;1714;-60
2022/04/16 05:28:15;;;;;;;;;;;;;;;17.75;62.23;100732.81;5094968;28;1263;-60
2022/04/16 05:30:48;;;;;;;;;;;;;;;17.77;62.45;100741.56;5094876;28;1356;-59
2022/04/16 05:34:18;;;;;;;;;;;;;;;17.81;63.00;100742.16;5095306;28;1060;-60
2022/04/16 05:36:06;;;;;;;;;;;;;;;17.79;62.36;100734.25;5093974;28;1902;-60
2022/04/16 05:38:33;;;;;;;;;;;;;;;17.78;62.47;100737.91;5094846;28;1910;-59
2022/04/16 05:40:59;;;;;;;;;;;;;;;17.80;62.55;100743.13;5091807;28;1765;-60
2022/04/16 05:43:26;;;;;;;;;;;;;;;17.82;62.12;100747.38;5094514;28;1471;-60
2022/04/16 05:45:53;;;;;;;;;;;;;;;17.81;62.08;100740.34;5094623;28;1443;-60
2022/04/16 05:48:19;;;;;;;;;;;;;;;17.83;62.09;100746.44;5094991;28;1035;-61
2022/04/16 05:50:47;;;;;;;;;;;;;;;17.86;62.49;100746.16;5094017;28;1745;-60
2022/04/16 05:53:15;;;;;;;;;;;;;;;17.86;62.08;100751.50;5094725;28;1754;-60
2022/04/16 05:55:44;;;;;;;;;;;;;;;17.92;62.07;100754.66;5094500;28;1208;-60
2022/04/16 05:58:12;;;;;;;;;;;;;;;17.93;62.25;100759.06;5094072;28;1967;-60
2022/04/16 06:00:39;;;;;;;;;;;;;;;17.92;61.98;100758.19;5094029;28;1564;-60
2022/04/16 06:03:06;;;;;;;;;;;;;;;17.94;62.02;100760.72;5094870;28;1019;-60
2022/04/16 06:05:32;;;;;;;;;;;;;;;17.93;62.64;100764.41;5094635;28;1710;-60
2022/04/16 06:07:59;;;;;;;;;;;;;;;17.95;61.85;100757.94;5094341;28;1408;-60
2022/04/16 06:10:27;;;;;;;;;;;;;;;17.96;62.18;100761.44;5094455;28;1389;-60
2022/04/16 06:12:54;;;;;;;;;;;;;;;17.96;61.98;100766.81;5094459;28;1607;-61
2022/04/16 06:15:20;;;;;;;;;;;;;;;17.95;62.38;100759.78;5093939;28;1212;-60
2022/04/16 06:17:47;;;;;;;;;;;;;;;17.95;62.22;100757.94;5094837;28;1910;-60
2022/04/16 06:20:14;;;;;;;;;;;;;;;17.97;61.95;100752.47;5094224;28;1594;-61
2022/04/16 06:22:41;;;;;;;;;;;;;;;17.99;62.43;100761.22;5094315;28;1202;-60
2022/04/16 06:25:08;;;;;;;;;;;;;;;17.99;62.45;100763.88;5094413;28;1465;-61
2022/04/16 06:27:39;;;;;;;;;;;;;;;18.00;62.32;100768.25;5094337;28;1600;-61
2022/04/16 06:30:06;;;;;;;;;;;;;;;18.05;62.18;100776.75;5097312;28;1364;-60
2022/04/16 06:32:34;;;;;;;;;;;;;;;18.01;62.53;100753.91;5099011;28;995;-61
2022/04/16 06:35:00;;;;;;;;;;;;;;;18.06;62.00;100762.38;5098385;28;1822;-61
2022/04/16 06:37:27;;;;;;;;;;;;;;;18.03;62.39;100755.47;5098270;28;1980;-61
2022/04/16 06:39:53;;;;;;;;;;;;;;;18.07;61.76;100761.41;5098152;28;1204;-60
2022/04/16 06:42:20;;;;;;;;;;;;;;;18.06;62.42;100755.22;5093867;28;1654;-60
2022/04/16 06:44:48;;;;;;;;;;;;;;;18.08;62.18;100747.03;5098884;28;963;-61
2022/04/16 06:47:14;;;;;;;;;;;;;;;18.11;61.91;100752.13;5097924;28;1718;-61
2022/04/16 06:49:41;;;;;;;;;;;;;;;18.07;62.22;100740.00;5097979;28;1204;-61
2022/04/16 06:52:08;;;;;;;;;;;;;;;18.05;61.86;100725.91;5098078;28;1622;-60
2022/04/16 06:54:34;;;;;;;;;;;;;;;18.10;62.48;100742.41;5097754;28;1571;-61
2022/04/16 06:57:01;;;;;;;;;;;;;;;18.07;61.86;100740.00;5098012;28;1647;-60
2022/04/16 06:59:27;;;;;;;;;;;;;;;18.05;62.30;100740.13;5097960;28;1981;-60
2022/04/16 07:01:55;;;;;;;;;;;;;;;18.06;62.81;100738.28;5097348;28;1613;-61
2022/04/16 07:04:22;;;;;;;;;;;;;;;18.09;62.01;100748.75;5097650;28;1745;-61
2022/04/16 07:06:48;;;;;;;;;;;;;;;18.04;62.56;100741.09;5097802;28;1560;-61
2022/04/16 07:09:15;;;;;;;;;;;;;;;18.07;62.60;100748.03;5097688;28;1188;-61
2022/04/16 07:11:42;;;;;;;;;;;;;;;18.06;61.94;100752.53;5097854;28;1615;-61
2022/04/16 07:14:08;;;;;;;;;;;;;;;18.06;62.41;100751.66;5097784;28;985;-61
2022/04/16 07:16:35;;;;;;;;;;;;;;;18.10;62.31;100758.44;5096878;28;1637;-61
2022/04/16 07:19:03;;;;;;;;;;;;;;;18.05;62.28;100760.69;5096852;28;1971;-60
2022/04/16 07:21:29;;;;;;;;;;;;;;;18.06;62.23;100751.66;5092949;28;1658;-61
2022/04/16 07:23:55;;;;;;;;;;;;;;;18.07;62.50;100748.03;5096675;28;1204;-61
2022/04/16 07:26:22;;;;;;;;;;;;;;;18.11;61.99;100744.09;5097448;28;999;-61
2022/04/16 07:28:48;;;;;;;;;;;;;;;18.13;62.74;100760.88;5096787;28;1421;-62
2022/04/16 07:31:16;;;;;;;;;;;;;;;18.13;62.50;100741.31;5096912;28;1643;-59
2022/04/16 07:33:43;;;;;;;;;;;;;;;18.13;62.10;100746.66;5096610;28;1428;-59
2022/04/16 07:36:11;;;;;;;;;;;;;;;18.08;62.14;100753.25;5097059;28;1098;-60
2022/04/16 07:38:37;;;;;;;;;;;;;;;18.11;62.66;100753.97;5096319;28;1906;-59
2022/04/16 07:41:04;;;;;;;;;;;;;;;18.10;62.44;100753.09;5095939;28;1636;-59
2022/04/16 07:43:32;;;;;;;;;;;;;;;18.10;62.57;100763.81;5096325;28;1368;-60
2022/04/16 07:45:59;;;;;;;;;;;;;;;18.06;62.60;100752.53;5095919;28;1616;-60
2022/04/16 07:48:26;;;;;;;;;;;;;;;18.13;62.50;100752.00;5097655;28;1068;-59
2022/04/16 07:50:52;;;;;;;;;;;;;;;18.10;62.73;100753.09;5096986;28;1699;-59
2022/04/16 07:53:21;;;;;;;;;;;;;;;18.12;62.53;100751.16;5096782;28;1279;-59
2022/04/16 07:55:48;;;;;;;;;;;;;;;18.11;62.80;100754.81;5096847;28;1734;-60
2022/04/16 07:58:14;;;;;;;;;;;;;;;18.12;62.62;100759.16;5096607;28;1909;-60
2022/04/16 08:00:41;;;;;;;;;;;;;;;18.12;62.57;100763.69;5096754;28;1411;-59
2022/04/16 08:03:07;;;;;;;;;;;;;;;18.11;62.77;100775.38;5096523;28;1734;-59
2022/04/16 08:05:34;;;;;;;;;;;;;;;18.10;62.64;100763.81;5096267;28;1299;-60
2022/04/16 08:08:02;;;;;;;;;;;;;;;18.11;61.99;100753.97;5096289;28;1627;-59
2022/04/16 08:10:29;;;;;;;;;;;;;;;18.12;62.54;100767.19;5096103;28;1188;-59
2022/04/16 08:12:56;;;;;;;;;;;;;;;18.12;62.19;100753.81;5096083;28;1381;-59
2022/04/16 08:15:23;;;;;;;;;;;;;;;18.13;62.31;100752.00;5096556;28;1622;-60
2022/04/16 08:17:49;;;;;;;;;;;;;;;18.13;62.69;100752.84;5096691;28;1103;-60
2022/04/16 08:20:16;;;;;;;;;;;;;;;18.11;62.56;100748.63;5096359;28;1969;-60
2022/04/16 08:22:46;;;;;;;;;;;;;;;18.11;62.59;100744.09;5096394;28;1588;-59
2022/04/16 08:28:01;;;;;;;;;;;;;;;18.11;62.29;100738.75;5090772;28;1643;-60
2022/04/16 08:30:28;;;;;;;;;;;;;;;18.12;62.57;100735.09;5095957;28;1313;-59
2022/04/16 08:32:54;;;;;;;;;;;;;;;18.08;62.54;100739.88;5096755;28;1018;-60
2022/04/16 08:35:21;;;;;;;;;;;;;;;18.12;62.60;100735.09;5095921;28;1532;-59
2022/04/16 08:37:49;;;;;;;;;;;;;;;18.09;62.52;100728.19;5095783;28;1469;-60
2022/04/16 08:40:16;;;;;;;;;;;;;;;18.08;62.43;100730.97;5095716;28;1975;-60
2022/04/16 08:42:44;;;;;;;;;;;;;;;18.10;62.22;100729.00;5095606;28;1568;-60
2022/04/16 08:45:13;;;;;;;;;;;;;;;18.10;61.93;100721.00;5095818;28;1252;-61
2022/04/16 08:47:40;;;;;;;;;;;;;;;18.11;62.26;100721.84;5096381;28;982;-61
2022/04/16 08:50:07;;;;;;;;;;;;;;;18.10;62.67;100723.66;5095507;28;1746;-61
2022/04/16 08:52:35;;;;;;;;;;;;;;;18.13;62.76;100726.09;5094598;28;1255;-61
2022/04/16 08:55:03;;;;;;;;;;;;;;;18.13;62.62;100723.41;5095682;28;1469;-60
2022/04/16 08:57:30;;;;;;;;;;;;;;;18.12;62.58;100723.53;5095435;28;1591;-60
2022/04/16 08:59:57;;;;;;;;;;;;;;;18.11;62.88;100709.31;5095452;28;1910;-61
2022/04/16 09:02:26;;;;;;;;;;;;;;;18.12;62.47;100719.03;5095576;28;1265;-61
2022/04/16 09:05:01;;;;;;;;;;;;;;;18.13;62.60;100725.25;5095618;28;1734;-61
2022/04/16 09:07:28;;;;;;;;;;;;;;;18.14;62.15;100717.06;5095511;28;1583;-61
2022/04/16 09:09:54;;;;;;;;;;;;;;;18.15;62.63;100707.25;5095289;28;1533;-60
2022/04/16 09:12:21;;;;;;;;;;;;;;;18.12;62.88;100707.47;5095474;28;1552;-61
2022/04/16 09:14:47;;;;;;;;;;;;;;;18.12;62.58;100705.66;5095072;28;1638;-61
2022/04/16 09:17:17;;;;;;;;;;;;;;;18.15;62.48;100713.44;5095904;28;1065;-60
2022/04/16 09:19:53;;;;;;;;;;;;;;;18.13;62.75;100715.38;5094933;28;1902;-61
2022/04/16 09:22:30;;;;;;;;;;;;;;;18.15;62.32;100702.72;5094711;28;1208;-61
2022/04/16 09:24:56;;;;;;;;;;;;;;;18.13;62.81;100710.03;5095053;28;1233;-60
2022/04/16 09:27:23;;;;;;;;;;;;;;;18.13;62.74;100699.34;5094930;28;1317;-60
2022/04/16 09:29:50;;;;;;;;;;;;;;;18.12;62.77;100694.09;5094853;28;1443;-61
2022/04/16 09:32:24;;;;;;;;;;;;;;;18.11;62.90;100682.56;5095302;28;1051;-61
2022/04/16 09:34:52;;;;;;;;;;;;;;;18.16;62.40;100704.41;5094873;28;1670;-61
2022/04/16 09:37:19;;;;;;;;;;;;;;;18.12;62.63;100702.97;5094713;28;1401;-61
2022/04/16 09:39:45;;;;;;;;;;;;;;;18.14;62.00;100700.16;5094887;28;1977;-61
2022/04/16 09:42:12;;;;;;;;;;;;;;;18.15;62.31;100697.38;5094901;28;1583;-61
2022/04/16 09:44:38;;;;;;;;;;;;;;;18.16;62.61;100691.03;5095348;28;1022;-61
2022/04/16 09:47:05;;;;;;;;;;;;;;;18.13;62.26;100691.31;5094503;28;1750;-61
2022/04/16 09:49:33;;;;;;;;;;;;;;;18.15;62.89;100692.03;5094865;28;1789;-61
2022/04/16 09:52:02;;;;;;;;;;;;;;;18.17;62.20;100687.38;5085596;28;1667;-61
2022/04/16 09:54:30;;;;;;;;;;;;;;;18.17;63.10;100684.69;5094407;28;1666;-61
2022/04/16 09:57:01;;;;;;;;;;;;;;;18.18;62.08;100702.44;5094381;28;1608;-61
2022/04/16 09:59:32;;;;;;;;;;;;;;;18.16;62.99;100695.53;5090178;28;1910;-61
2022/04/16 10:01:59;;;;;;;;;;;;;;;18.19;62.55;100687.25;5094571;28;1268;-60
2022/04/16 10:04:25;;;;;;;;;;;;;;;18.15;62.95;100692.03;5094034;28;1726;-60
2022/04/16 10:06:52;;;;;;;;;;;;;;;18.14;62.91;100684.94;5094506;28;1576;-61
2022/04/16 10:09:22;;;;;;;;;;;;;;;18.16;63.00;100664.25;5094388;28;1364;-61
2022/04/16 10:14:38;;;;;;;;;;;;;;;18.16;62.76;100658.91;5091075;28;1579;-61
2022/04/16 10:17:08;;;;;;;;;;;;;;;18.17;62.94;100641.88;5094960;28;963;-61
2022/04/16 10:19:39;;;;;;;;;;;;;;;18.17;62.66;100662.44;5094246;28;1959;-61
2022/04/16 10:22:05;;;;;;;;;;;;;;;18.18;62.71;100654.25;5094221;28;1412;-61
2022/04/16 10:24:33;;;;;;;;;;;;;;;18.20;62.97;100654.97;5094461;28;1580;-61
2022/04/16 10:27:08;;;;;;;;;;;;;;;18.21;62.65;100647.81;5093964;28;1384;-61
2022/04/16 10:29:37;;;;;;;;;;;;;;;18.20;62.32;100646.09;5090674;28;1456;-61
2022/04/16 10:32:14;;;;;;;;;;;;;;;18.18;63.00;100643.56;5094525;28;1004;-61
2022/04/16 10:34:42;;;;;;;;;;;;;;;18.17;62.93;100639.22;5094409;28;1734;-61
2022/04/16 10:37:09;;;;;;;;;;;;;;;18.22;61.82;100665.56;5093813;28;1266;-61
2022/04/16 10:39:38;;;;;;;;;;;;;;;18.18;62.22;100648.06;5093943;28;1973;-61
2022/04/16 10:42:05;;;;;;;;;;;;;;;18.21;62.76;100662.03;5091931;28;1580;-61
2022/04/16 10:44:45;;;;;;;;;;;;;;;18.20;62.49;100652.31;5093738;28;1098;-61
2022/04/16 10:47:13;;;;;;;;;;;;;;;18.21;62.93;100664.72;5094104;28;1043;-61
2022/04/16 10:49:40;;;;;;;;;;;;;;;18.19;62.90;100649.78;5094105;28;1570;-60
2022/04/16 10:52:18;;;;;;;;;;;;;;;18.21;62.71;100670.06;5094180;28;1571;-61
2022/04/16 10:54:47;;;;;;;;;;;;;;;18.21;62.82;100658.53;5085675;28;1204;-61
2022/04/16 10:57:21;;;;;;;;;;;;;;;18.21;62.78;100667.41;5094094;28;1564;-61
2022/04/16 10:59:48;;;;;;;;;;;;;;;18.23;62.63;100665.44;5093761;28;1977;-61
2022/04/16 11:02:19;;;;;;;;;;;;;;;18.18;63.07;100654.25;5093998;28;1258;-61
2022/04/16 11:04:55;;;;;;;;;;;;;;;18.21;62.17;100659.38;5094188;28;1956;-61
2022/04/16 11:07:22;;;;;;;;;;;;;;;18.21;62.97;100653.19;5093682;28;1619;-61
2022/04/16 11:09:51;;;;;;;;;;;;;;;18.21;62.83;100647.81;5094088;28;1504;-60
2022/04/16 11:12:18;;;;;;;;;;;;;;;18.23;62.53;100652.06;5093750;28;1499;-60
2022/04/16 11:14:46;;;;;;;;;;;;;;;18.23;62.05;100656.56;5093631;28;1508;-60
2022/04/16 11:17:14;;;;;;;;;;;;;;;18.24;62.03;100664.47;5097201;28;1023;-61
2022/04/16 11:19:41;;;;;;;;;;;;;;;18.25;62.38;100663.47;5097499;28;1980;-61
2022/04/16 11:22:07;;;;;;;;;;;;;;;18.24;61.91;100653.75;5097396;28;1485;-61
2022/04/16 11:24:34;;;;;;;;;;;;;;;18.25;62.08;100666.16;5097212;28;1563;-60
2022/04/16 11:35:15;;;;;;;;;;;;;;;18.26;62.35;100648.25;5097126;28;1757;-61
2022/04/16 11:37:41;;;;;;;;;;;;;;;18.25;62.88;100644.72;5097217;28;1607;-60
2022/04/16 11:40:09;;;;;;;;;;;;;;;18.26;62.38;100635.75;5097139;28;1909;-60
2022/04/16 11:42:37;;;;;;;;;;;;;;;18.25;63.11;100639.38;5097226;28;1651;-61
2022/04/16 11:45:06;;;;;;;;;;;;;;;18.23;62.38;100624.44;5097377;28;992;-60
2022/04/16 11:47:36;;;;;;;;;;;;;;;18.26;63.00;100634.88;5096871;28;1726;-61
2022/04/16 11:50:05;;;;;;;;;;;;;;;18.27;62.35;100626.72;5096543;28;1861;-61
2022/04/16 11:52:33;;;;;;;;;;;;;;;18.26;62.70;100624.16;5096708;28;1619;-60
2022/04/16 11:55:00;;;;;;;;;;;;;;;18.26;62.87;100625.03;5096975;28;1582;-61
2022/04/16 11:57:27;;;;;;;;;;;;;;;18.26;62.74;100625.03;5096723;28;1278;-61
2022/04/16 11:59:58;;;;;;;;;;;;;;;18.26;62.45;100618.81;5096801;28;1975;-61
2022/04/16 12:02:29;;;;;;;;;;;;;;;18.28;62.28;100616.84;5092399;28;1726;-60
2022/04/16 12:05:06;;;;;;;;;;;;;;;18.28;62.04;100616.84;5096849;28;1702;-60
2022/04/16 12:07:33;;;;;;;;;;;;;;;18.26;62.34;100608.09;5096453;28;1408;-60
2022/04/16 12:10:01;;;;;;;;;;;;;;;18.21;62.91;100603.16;5096336;28;1588;-60
2022/04/16 12:12:28;;;;;;;;;;;;;;;18.23;62.40;100603.88;5096315;28;1627;-61
2022/04/16 12:14:55;;;;;;;;;;;;;;;18.22;62.77;100607.56;5096532;28;1666;-60
2022/04/16 12:17:24;;;;;;;;;;;;;;;18.20;63.02;100587.22;5097030;28;993;-61
2022/04/16 12:19:57;;;;;;;;;;;;;;;18.19;62.78;100605.13;5095826;28;1971;-61
2022/04/16 12:22:25;;;;;;;;;;;;;;;18.15;63.03;100589.47;5096390;28;1528;-60
2022/04/16 12:24:51;;;;;;;;;;;;;;;18.18;62.87;100600.75;5096594;28;1568;-60
2022/04/16 12:27:25;;;;;;;;;;;;;;;18.19;63.08;100591.75;5096419;28;987;-59
2022/04/16 12:29:51;;;;;;;;;;;;;;;18.14;63.13;100585.94;5095895;28;1778;-59
2022/04/16 12:32:26;;;;;;;;;;;;;;;18.18;62.49;100600.75;5095683;28;1504;-60
2022/04/16 12:34:52;;;;;;;;;;;;;;;18.18;63.21;100584.69;5076787;28;1516;-60
2022/04/16 12:37:19;;;;;;;;;;;;;;;18.14;63.06;100604.66;5096588;28;994;-59
2022/04/16 12:39:45;;;;;;;;;;;;;;;18.13;63.08;100589.59;5096124;28;1902;-59
2022/04/16 12:42:12;;;;;;;;;;;;;;;18.18;62.25;100584.69;5096102;28;1606;-59
2022/04/16 12:44:38;;;;;;;;;;;;;;;18.20;62.48;100592.59;5096367;28;1159;-61
2022/04/16 12:47:05;;;;;;;;;;;;;;;18.18;63.06;100584.69;5095987;28;1608;-60
2022/04/16 12:49:33;;;;;;;;;;;;;;;18.20;62.65;100582.72;5096042;28;1714;-60
2022/04/16 12:51:59;;;;;;;;;;;;;;;18.22;62.92;100564.72;5095251;28;1444;-60
2022/04/16 12:54:26;;;;;;;;;;;;;;;18.25;62.45;100585.00;5095204;28;1202;-59
2022/04/16 12:56:53;;;;;;;;;;;;;;;18.22;62.26;100578.09;5095526;28;1539;-60
2022/04/16 12:59:19;;;;;;;;;;;;;;;18.23;62.40;100582.47;5095750;28;1575;-59
2022/04/16 13:01:46;;;;;;;;;;;;;;;18.20;63.02;100577.38;5095631;28;1910;-60
2022/04/16 13:04:12;;;;;;;;;;;;;;;18.24;62.91;100577.94;5095663;28;1662;-59
2022/04/16 13:06:40;;;;;;;;;;;;;;;18.21;62.84;100573.72;5095571;28;1602;-59
2022/04/16 13:09:07;;;;;;;;;;;;;;;18.19;62.63;100573.00;5095178;28;1477;-60
2022/04/16 13:11:34;;;;;;;;;;;;;;;18.15;62.60;100568.91;5095297;28;1448;-60
2022/04/16 13:14:01;;;;;;;;;;;;;;;18.16;62.58;100573.25;5095516;28;1020;-60
2022/04/16 13:16:27;;;;;;;;;;;;;;;18.22;62.27;100586.13;5095087;28;1714;-59